createdAt,value
2022-11-30T00:00:19.231Z,4.85
2022-11-30T00:03:09.941Z,5.09
2022-11-30T00:05:41.564Z,5.88
2022-11-30T00:08:12.148Z,6.37
2022-11-30T00:10:43.286Z,6.46
2022-11-30T00:13:14.019Z,6.37
2022-11-30T00:15:44.858Z,6.74
2022-11-30T00:18:17.054Z,6.83
2022-11-30T00:20:51.056Z,5.24
2022-11-30T00:23:21.658Z,4.76
2022-11-30T00:25:52.462Z,5.35
2022-11-30T00:28:23.023Z,5.97
2022-11-30T00:30:59.708Z,6.27
2022-11-30T00:33:30.427Z,6.36
2022-11-30T00:36:02.300Z,6.51
2022-11-30T00:38:33.696Z,6.47
2022-11-30T00:41:04.540Z,6.56
2022-11-30T00:43:35.410Z,6.63
2022-11-30T00:46:06.620Z,6.68
2022-11-30T00:48:37.899Z,6.91
2022-11-30T00:51:09.518Z,6.59
2022-11-30T00:53:40.914Z,5.28
2022-11-30T00:56:12.020Z,4.99
2022-11-30T00:58:42.734Z,5.80
2022-11-30T01:01:13.347Z,6.09
2022-11-30T01:03:44.212Z,6.21
2022-11-30T01:06:15.398Z,6.57
2022-11-30T01:08:46.126Z,7.08
2022-11-30T01:11:18.751Z,6.05
2022-11-30T01:13:49.432Z,4.77
2022-11-30T01:16:20.988Z,4.96
2022-11-30T01:18:51.926Z,5.51
2022-11-30T01:21:23.730Z,5.93
2022-11-30T01:23:55.134Z,6.25
2022-11-30T01:26:25.991Z,6.52
2022-11-30T01:28:56.942Z,6.79
2022-11-30T01:31:28.105Z,6.62
2022-11-30T01:33:59.287Z,6.91
2022-11-30T01:36:30.176Z,6.55
2022-11-30T01:39:00.862Z,5.16
2022-11-30T01:41:32.628Z,4.98
2022-11-30T01:44:19.812Z,5.88
2022-11-30T01:46:54.722Z,6.08
2022-11-30T01:49:29.946Z,6.39
2022-11-30T01:52:02.270Z,6.67
2022-11-30T01:54:34.699Z,6.64
2022-11-30T01:57:09.019Z,6.89
2022-11-30T01:59:40.104Z,6.31
2022-11-30T02:02:11.128Z,4.83
2022-11-30T02:04:41.882Z,4.83
2022-11-30T02:07:12.523Z,5.68
2022-11-30T02:09:43.961Z,6.36
2022-11-30T02:12:20.205Z,6.77
2022-11-30T02:14:52.339Z,6.41
2022-11-30T02:17:25.454Z,4.85
2022-11-30T02:19:54.735Z,4.83
2022-11-30T02:22:31.969Z,5.42
2022-11-30T02:25:08.634Z,5.99
2022-11-30T02:27:59.952Z,5.85
2022-11-30T02:30:32.741Z,6.16
2022-11-30T02:33:06.556Z,6.35
2022-11-30T02:35:40.135Z,6.63
2022-11-30T02:38:09.123Z,6.69
2022-11-30T02:40:40.664Z,6.64
2022-11-30T02:43:11.214Z,5.62
2022-11-30T02:45:45.732Z,4.59
2022-11-30T02:48:19.754Z,4.74
2022-11-30T02:50:54.159Z,5.10
2022-11-30T02:53:24.689Z,5.67
2022-11-30T02:55:55.931Z,6.13
2022-11-30T02:58:26.566Z,6.24
2022-11-30T03:00:57.754Z,6.46
2022-11-30T03:03:28.411Z,5.09
2022-11-30T03:05:59.275Z,4.96
2022-11-30T03:08:30.314Z,5.39
2022-11-30T03:11:04.431Z,6.01
2022-11-30T03:13:35.213Z,6.57
2022-11-30T03:16:09.655Z,6.45
2022-11-30T03:18:42.670Z,6.63
2022-11-30T03:21:13.707Z,5.61
2022-11-30T03:23:44.387Z,4.70
2022-11-30T03:26:15.389Z,5.45
2022-11-30T03:28:46.017Z,6.02
2022-11-30T03:31:16.942Z,6.30
2022-11-30T03:33:47.588Z,6.56
2022-11-30T03:36:18.619Z,6.65
2022-11-30T03:38:49.280Z,6.85
2022-11-30T03:41:20.347Z,5.70
2022-11-30T03:43:51.017Z,4.56
2022-11-30T03:46:21.784Z,5.00
2022-11-30T03:48:52.440Z,5.65
2022-11-30T03:51:23.156Z,6.18
2022-11-30T03:53:53.752Z,6.57
2022-11-30T03:56:24.860Z,6.56
2022-11-30T03:58:56.003Z,6.56
2022-11-30T04:01:27.077Z,6.24
2022-11-30T04:03:58.001Z,4.95
2022-11-30T04:06:29.186Z,4.31
2022-11-30T04:08:59.621Z,4.88
2022-11-30T04:11:30.670Z,5.27
2022-11-30T04:14:01.238Z,5.43
2022-11-30T04:16:32.365Z,5.81
2022-11-30T04:19:03.249Z,6.13
2022-11-30T04:21:34.597Z,6.01
2022-11-30T04:24:05.911Z,5.97
2022-11-30T04:26:37.394Z,6.21
2022-11-30T04:29:08.214Z,4.87
2022-11-30T04:31:39.446Z,4.04
2022-11-30T04:34:10.040Z,4.79
2022-11-30T04:36:41.067Z,5.43
2022-11-30T04:39:11.558Z,5.99
2022-11-30T04:41:42.400Z,6.32
2022-11-30T04:44:13.129Z,6.24
2022-11-30T04:46:44.338Z,6.32
2022-11-30T04:49:14.963Z,6.40
2022-11-30T04:51:45.656Z,6.19
2022-11-30T04:54:16.376Z,5.05
2022-11-30T04:56:47.525Z,4.37
2022-11-30T04:59:18.236Z,5.08
2022-11-30T05:01:48.899Z,5.82
2022-11-30T05:04:19.439Z,6.08
2022-11-30T05:06:52.696Z,6.09
2022-11-30T05:09:23.330Z,6.45
2022-11-30T05:11:54.050Z,6.72
2022-11-30T05:14:25.063Z,5.77
2022-11-30T05:16:56.235Z,4.74
2022-11-30T05:19:26.670Z,5.24
2022-11-30T05:21:57.741Z,5.93
2022-11-30T05:24:28.648Z,6.40
2022-11-30T05:26:59.668Z,5.88
2022-11-30T05:29:30.208Z,4.47
2022-11-30T05:32:00.845Z,4.54
2022-11-30T05:34:41.188Z,5.21
2022-11-30T05:37:20.673Z,5.69
2022-11-30T05:39:51.268Z,6.07
2022-11-30T05:42:22.036Z,6.08
2022-11-30T05:44:52.636Z,6.28
2022-11-30T05:47:23.578Z,6.29
2022-11-30T05:49:54.203Z,5.04
2022-11-30T05:52:25.040Z,4.01
2022-11-30T05:54:55.878Z,4.75
2022-11-30T05:57:26.829Z,5.31
2022-11-30T05:59:57.442Z,5.50
2022-11-30T06:02:28.673Z,5.85
2022-11-30T06:04:59.626Z,6.11
2022-11-30T06:07:30.459Z,5.88
2022-11-30T06:10:01.197Z,4.69
2022-11-30T06:12:31.935Z,4.04
2022-11-30T06:15:02.657Z,4.80
2022-11-30T06:17:33.517Z,5.60
2022-11-30T06:20:04.540Z,6.09
2022-11-30T06:22:35.781Z,6.18
2022-11-30T06:25:07.137Z,4.94
2022-11-30T06:27:37.915Z,4.16
2022-11-30T06:30:10.232Z,4.92
2022-11-30T06:32:45.380Z,5.71
2022-11-30T06:35:16.105Z,6.24
2022-11-30T06:37:46.935Z,6.17
2022-11-30T06:40:17.713Z,6.35
2022-11-30T06:42:48.572Z,6.33
2022-11-30T06:45:19.203Z,5.09
2022-11-30T06:47:49.873Z,4.41
2022-11-30T06:50:20.453Z,5.09
2022-11-30T06:52:51.283Z,5.74
2022-11-30T06:55:21.817Z,5.94
2022-11-30T06:57:52.447Z,5.97
2022-11-30T07:00:23.887Z,6.08
2022-11-30T07:02:54.987Z,6.00
2022-11-30T07:05:25.774Z,4.68
2022-11-30T07:07:56.604Z,4.52
2022-11-30T07:10:27.863Z,4.74
2022-11-30T07:12:58.616Z,5.29
2022-11-30T07:15:29.153Z,5.28
2022-11-30T07:18:02.623Z,5.75
2022-11-30T07:20:33.181Z,5.57
2022-11-30T07:23:18.340Z,5.78
2022-11-30T07:26:06.757Z,6.00
2022-11-30T07:28:38.929Z,6.07
2022-11-30T07:31:16.897Z,6.44
2022-11-30T07:33:48.634Z,6.38
2022-11-30T07:36:20.442Z,5.03
2022-11-30T07:38:51.207Z,4.08
2022-11-30T07:41:22.281Z,4.70
2022-11-30T07:43:53.305Z,5.35
2022-11-30T07:46:23.858Z,5.77
2022-11-30T07:48:54.674Z,6.23
2022-11-30T07:51:25.409Z,6.50
2022-11-30T07:53:58.413Z,6.46
2022-11-30T07:56:29.799Z,5.05
2022-11-30T07:59:01.324Z,4.21
2022-11-30T08:01:33.116Z,5.04
2022-11-30T08:04:04.367Z,5.51
2022-11-30T08:06:35.031Z,6.06
2022-11-30T08:09:05.861Z,6.04
2022-11-30T08:11:37.516Z,6.18
2022-11-30T08:14:08.260Z,6.02
2022-11-30T08:16:39.366Z,4.74
2022-11-30T08:19:10.533Z,3.76
2022-11-30T08:21:43.221Z,4.26
2022-11-30T08:24:14.554Z,5.03
2022-11-30T08:26:45.402Z,5.41
2022-11-30T08:29:16.599Z,5.39
2022-11-30T08:31:47.347Z,5.77
2022-11-30T08:34:18.581Z,5.96
2022-11-30T08:36:51.995Z,5.69
2022-11-30T08:39:23.043Z,5.94
2022-11-30T08:41:54.316Z,6.31
2022-11-30T08:44:25.157Z,5.06
2022-11-30T08:46:56.107Z,4.01
2022-11-30T08:49:26.951Z,4.39
2022-11-30T08:54:49.327Z,5.49
2022-11-30T08:57:22.095Z,5.71
2022-11-30T08:59:52.894Z,6.20
2022-11-30T09:02:23.565Z,6.33
2022-11-30T09:04:54.528Z,5.07
2022-11-30T09:07:24.990Z,4.27
2022-11-30T09:09:56.080Z,4.96
2022-11-30T09:12:26.656Z,5.76
2022-11-30T09:14:58.598Z,6.19
2022-11-30T09:17:29.659Z,6.40
2022-11-30T09:20:00.798Z,6.46
2022-11-30T09:22:31.636Z,5.27
2022-11-30T09:25:02.676Z,4.44
2022-11-30T09:27:37.194Z,4.98
2022-11-30T09:30:12.228Z,5.45
2022-11-30T09:32:42.759Z,6.00
2022-11-30T09:35:13.703Z,6.23
2022-11-30T09:37:44.281Z,6.54
2022-11-30T09:40:24.280Z,6.41
2022-11-30T09:42:57.880Z,5.21
2022-11-30T09:45:30.243Z,4.40
2022-11-30T09:48:14.949Z,4.99
2022-11-30T09:50:47.530Z,5.87
2022-11-30T09:53:24.692Z,6.31
2022-11-30T09:56:03.519Z,6.60
2022-11-30T09:58:40.188Z,6.09
2022-11-30T10:01:16.469Z,4.78
2022-11-30T10:03:47.162Z,4.53
2022-11-30T10:06:20.842Z,5.53
2022-11-30T10:08:56.942Z,6.11
2022-11-30T10:11:34.738Z,6.10
2022-11-30T10:14:17.641Z,4.74
2022-11-30T10:16:51.143Z,4.98
2022-11-30T10:19:30.136Z,5.70
2022-11-30T10:22:08.070Z,6.34
2022-11-30T10:24:50.395Z,5.30
2022-11-30T10:27:31.239Z,4.37
2022-11-30T10:30:02.892Z,5.12
2022-11-30T10:32:37.007Z,5.89
2022-11-30T10:35:16.651Z,6.18
2022-11-30T10:37:48.441Z,6.39
2022-11-30T10:40:22.502Z,6.23
2022-11-30T10:42:55.311Z,5.02
2022-11-30T10:45:29.059Z,4.70
2022-11-30T10:48:02.095Z,5.43
2022-11-30T10:50:33.087Z,6.05
2022-11-30T10:53:04.129Z,6.08
2022-11-30T10:55:36.748Z,6.45
2022-11-30T10:58:11.097Z,5.80
2022-11-30T11:00:41.858Z,4.48
2022-11-30T11:13:39.282Z,5.45
2022-11-30T11:16:11.076Z,4.61
2022-11-30T11:18:53.378Z,4.02
2022-11-30T11:21:24.936Z,4.58
2022-11-30T11:23:56.594Z,5.39
2022-11-30T11:26:28.169Z,5.68
2022-11-30T11:29:00.002Z,5.73
2022-11-30T11:31:36.552Z,5.96
2022-11-30T11:34:24.097Z,6.27
2022-11-30T11:37:05.129Z,5.16
2022-11-30T11:39:36.111Z,4.23
2022-11-30T11:42:08.230Z,4.84
2022-11-30T11:44:39.219Z,5.74
2022-11-30T11:47:24.188Z,5.92
2022-11-30T11:50:05.061Z,6.06
2022-11-30T11:52:36.214Z,4.80
2022-11-30T11:55:10.012Z,4.10
2022-11-30T11:57:43.497Z,4.77
2022-11-30T12:00:17.939Z,5.64
2022-11-30T12:02:52.916Z,6.13
2022-11-30T12:05:25.975Z,6.30
2022-11-30T12:08:03.921Z,5.16
2022-11-30T12:10:53.681Z,4.00
2022-11-30T12:13:27.886Z,4.41
2022-11-30T12:15:57.138Z,5.36
2022-11-30T12:18:32.238Z,5.77
2022-11-30T12:21:06.200Z,6.52
2022-11-30T12:23:45.271Z,6.20
2022-11-30T12:26:20.579Z,4.77
2022-11-30T12:29:04.901Z,4.23
2022-11-30T12:31:41.823Z,5.07
2022-11-30T12:34:19.152Z,5.54
2022-11-30T12:36:55.528Z,6.16
2022-11-30T12:39:31.586Z,5.27
2022-11-30T12:42:05.561Z,4.25
2022-11-30T12:44:49.624Z,4.48
2022-11-30T12:47:28.361Z,5.40
2022-11-30T12:50:04.398Z,5.82
2022-11-30T12:52:41.089Z,6.40
2022-11-30T12:55:18.729Z,5.83
2022-11-30T12:57:56.629Z,4.44
2022-11-30T13:00:30.919Z,4.63
2022-11-30T13:03:24.369Z,5.86
2022-11-30T13:05:58.789Z,6.03
2022-11-30T13:08:31.884Z,5.25
2022-11-30T13:11:06.609Z,4.15
2022-11-30T13:13:38.382Z,4.66
2022-11-30T13:16:09.961Z,5.30
2022-11-30T13:18:40.852Z,5.87
2022-11-30T13:21:19.426Z,6.56
2022-11-30T13:23:54.572Z,6.19
2022-11-30T13:26:28.594Z,5.02
2022-11-30T13:29:12.229Z,4.23
2022-11-30T13:31:45.015Z,5.01
2022-11-30T13:34:29.008Z,5.65
2022-11-30T13:37:04.290Z,5.80
2022-11-30T14:38:42.464Z,6.14
2022-11-30T14:41:23.395Z,5.19
2022-11-30T14:44:00.988Z,4.21
2022-11-30T14:46:34.015Z,4.55
2022-11-30T14:49:15.333Z,5.33
2022-11-30T14:51:47.436Z,5.97
2022-11-30T14:54:22.931Z,6.43
2022-11-30T14:56:55.012Z,6.34
2022-11-30T14:59:34.345Z,5.22
2022-11-30T15:02:06.176Z,4.50
2022-11-30T15:04:37.768Z,5.11
2022-11-30T15:07:14.031Z,5.62
2022-11-30T15:09:45.832Z,6.04
2022-11-30T15:12:20.399Z,6.33
2022-11-30T15:15:10.246Z,5.99
2022-11-30T15:17:51.951Z,4.70
2022-11-30T15:20:26.093Z,4.30
2022-11-30T15:22:57.802Z,5.32
2022-11-30T15:25:31.570Z,6.01
2022-11-30T15:28:04.741Z,6.40
2022-11-30T15:30:37.323Z,6.49
2022-11-30T15:33:08.557Z,6.14
2022-11-30T15:36:12.101Z,4.94
2022-11-30T15:38:30.445Z,4.35
2022-11-30T15:41:05.541Z,5.10
2022-11-30T15:43:38.224Z,5.79
2022-11-30T15:46:27.039Z,6.13
2022-11-30T15:49:09.488Z,6.40
2022-11-30T15:51:41.563Z,6.44
2022-11-30T15:54:12.387Z,5.11
2022-11-30T15:56:43.457Z,4.97
2022-11-30T15:59:24.721Z,5.78
2022-11-30T16:02:05.036Z,6.34
2022-11-30T16:04:49.621Z,5.99
2022-11-30T16:07:20.983Z,4.65
2022-11-30T16:09:51.801Z,4.31
2022-11-30T16:12:27.402Z,5.20
2022-11-30T16:14:58.082Z,5.47
2022-11-30T16:21:01.187Z,6.45
2022-11-30T16:23:34.635Z,5.65
2022-11-30T16:26:07.907Z,4.67
2022-11-30T16:28:44.303Z,5.12
2022-11-30T16:31:21.223Z,5.52
2022-11-30T16:33:51.701Z,5.95
2022-11-30T16:36:23.053Z,5.95
2022-11-30T16:38:54.104Z,6.32
2022-11-30T16:41:26.003Z,5.50
2022-11-30T16:43:57.902Z,4.47
2022-11-30T16:46:29.817Z,4.90
2022-11-30T16:58:21.815Z,4.05
2022-11-30T17:00:52.431Z,4.72
2022-11-30T17:03:24.541Z,5.62
2022-11-30T17:05:54.984Z,6.26
2022-11-30T17:08:25.923Z,6.36
2022-11-30T17:10:56.748Z,4.98
2022-11-30T17:13:28.000Z,4.17
2022-11-30T17:15:58.425Z,4.80
2022-11-30T17:18:29.465Z,5.72
2022-11-30T17:21:00.247Z,6.22
2022-11-30T17:23:31.037Z,6.33
2022-11-30T17:26:01.663Z,5.36
2022-11-30T17:28:32.392Z,4.32
2022-11-30T17:31:02.975Z,3.88
2022-11-30T17:33:34.484Z,4.95
2022-11-30T17:36:06.447Z,5.91
2022-11-30T17:38:37.483Z,6.52
2022-11-30T17:41:08.630Z,6.50
2022-11-30T17:43:39.942Z,5.49
2022-11-30T17:46:11.257Z,4.41
2022-11-30T17:48:41.895Z,4.54
2022-11-30T17:51:12.996Z,5.64
2022-11-30T17:53:44.494Z,6.24
2022-11-30T17:56:15.645Z,6.87
2022-11-30T17:58:49.354Z,7.18
2022-11-30T18:01:21.256Z,6.02
2022-11-30T18:03:52.934Z,4.89
2022-11-30T18:06:24.459Z,4.10
2022-11-30T18:08:55.595Z,3.85
2022-11-30T18:11:26.884Z,4.96
2022-11-30T18:13:58.231Z,5.80
2022-11-30T18:16:29.734Z,6.67
2022-11-30T18:19:00.779Z,6.93
2022-11-30T18:21:31.621Z,5.71
2022-11-30T18:24:02.351Z,4.55
2022-11-30T18:26:34.322Z,3.94
2022-11-30T18:29:05.452Z,4.72
2022-11-30T18:31:37.645Z,5.72
2022-11-30T18:34:08.967Z,6.29
2022-11-30T18:36:39.700Z,6.76
2022-11-30T18:39:10.917Z,6.17
2022-11-30T18:41:41.473Z,4.98
2022-11-30T18:44:12.515Z,4.48
2022-11-30T18:46:42.986Z,5.18
2022-11-30T18:49:13.829Z,6.02
2022-11-30T18:51:44.613Z,6.56
2022-11-30T18:54:15.451Z,5.89
2022-11-30T18:56:46.510Z,4.62
2022-11-30T18:59:17.059Z,4.76
2022-11-30T19:01:47.580Z,5.61
2022-11-30T19:04:18.500Z,6.00
2022-11-30T19:06:49.320Z,6.59
2022-11-30T19:09:20.667Z,6.22
2022-11-30T19:11:51.816Z,5.12
2022-11-30T19:14:23.135Z,4.17
2022-11-30T19:16:53.776Z,4.13
2022-11-30T19:19:25.169Z,5.05
2022-11-30T19:21:58.432Z,5.91
2022-11-30T19:24:29.814Z,6.39
2022-11-30T19:27:00.634Z,6.95
2022-11-30T19:29:31.647Z,6.69
2022-11-30T19:32:02.486Z,5.22
2022-11-30T19:34:34.048Z,4.49
2022-11-30T19:37:04.529Z,5.23
2022-11-30T19:39:35.743Z,6.09
2022-11-30T19:42:07.411Z,6.47
2022-11-30T19:44:39.243Z,6.66
2022-11-30T19:47:09.850Z,5.66
2022-11-30T19:49:41.715Z,4.79
2022-11-30T19:52:12.752Z,5.38
2022-11-30T19:54:44.105Z,6.10
2022-11-30T19:57:15.161Z,6.82
2022-11-30T19:59:47.212Z,6.38
2022-11-30T20:02:19.418Z,5.10
2022-11-30T20:04:59.428Z,4.90
2022-11-30T20:07:32.327Z,5.98
2022-11-30T20:10:03.274Z,6.70
2022-11-30T20:12:33.873Z,6.96
2022-11-30T20:15:05.135Z,5.70
2022-11-30T20:17:35.853Z,4.85
2022-11-30T20:20:08.051Z,5.60
2022-11-30T20:22:38.653Z,6.45
2022-11-30T20:25:10.171Z,7.05
2022-11-30T20:27:41.044Z,7.01
2022-11-30T20:30:12.743Z,6.04
2022-11-30T20:32:43.630Z,4.98
2022-11-30T20:35:14.858Z,4.73
2022-11-30T20:37:45.408Z,5.76
2022-11-30T20:40:17.139Z,6.60
2022-11-30T20:42:47.995Z,7.25
2022-11-30T20:45:19.141Z,7.48
2022-11-30T20:47:54.646Z,6.37
2022-11-30T20:50:28.253Z,5.08
2022-11-30T20:52:58.650Z,4.53
2022-11-30T20:55:29.668Z,5.43
2022-11-30T20:58:07.798Z,6.39
2022-11-30T21:00:39.922Z,7.00
2022-11-30T21:03:10.732Z,7.05
2022-11-30T21:05:41.675Z,5.97
2022-11-30T21:08:12.331Z,4.93
2022-11-30T21:10:42.923Z,4.49
2022-11-30T21:13:13.510Z,5.38
2022-11-30T21:15:55.600Z,6.32
2022-11-30T21:18:51.719Z,7.05
2022-11-30T21:21:25.087Z,6.86
2022-11-30T21:23:54.206Z,5.79
2022-11-30T21:26:26.001Z,4.77
2022-11-30T21:29:01.116Z,4.62
2022-11-30T21:31:32.397Z,5.71
2022-11-30T21:34:03.901Z,6.60
2022-11-30T21:36:34.785Z,7.28
2022-11-30T21:39:07.593Z,7.14
2022-11-30T21:41:39.941Z,5.91
2022-11-30T21:44:12.275Z,4.84
2022-11-30T21:46:43.830Z,4.29
2022-11-30T21:49:14.954Z,5.26
2022-11-30T21:51:45.786Z,6.29
2022-11-30T21:54:16.521Z,7.08
2022-11-30T21:56:52.478Z,7.45
2022-11-30T21:59:23.004Z,6.38
2022-11-30T22:01:53.976Z,5.29
2022-11-30T22:04:24.525Z,4.73
2022-11-30T22:06:55.820Z,5.56
2022-11-30T22:09:26.629Z,6.53
2022-11-30T22:11:58.007Z,7.12
2022-11-30T22:14:29.040Z,7.49
2022-11-30T22:17:00.019Z,6.68
2022-11-30T22:19:30.612Z,5.50
2022-11-30T22:22:01.668Z,4.87
2022-11-30T22:24:32.279Z,5.74
2022-11-30T22:27:03.117Z,6.65
2022-11-30T22:29:33.852Z,7.43
2022-11-30T22:32:04.628Z,6.90
2022-11-30T22:34:35.109Z,5.65
2022-11-30T22:37:05.945Z,4.64
2022-11-30T22:39:36.784Z,4.24
2022-11-30T22:42:07.489Z,5.33
2022-11-30T22:44:37.949Z,6.44
2022-11-30T22:47:08.886Z,7.26
2022-11-30T22:49:39.740Z,7.78
2022-11-30T22:52:10.937Z,6.93
2022-11-30T22:54:41.562Z,5.79
2022-11-30T22:57:12.942Z,4.93
2022-11-30T22:59:43.394Z,5.11
2022-11-30T23:02:15.191Z,6.34
2022-11-30T23:23:10.382Z,7.13
2022-11-30T23:25:41.588Z,7.71
2022-11-30T23:28:12.467Z,7.06
2022-11-30T23:30:43.359Z,5.83
2022-11-30T23:33:14.051Z,5.00
2022-11-30T23:35:44.935Z,5.65
2022-11-30T23:38:15.532Z,6.73
2022-11-30T23:40:46.087Z,7.47
2022-11-30T23:43:16.718Z,7.69
2022-11-30T23:45:47.501Z,6.74
2022-11-30T23:48:18.339Z,5.56
2022-11-30T23:50:49.031Z,4.69
2022-11-30T23:53:19.964Z,4.36
2022-11-30T23:55:50.708Z,5.46
2022-11-30T23:58:23.370Z,6.63
